createdAt,value
2022-11-25T00:00:08.667Z,100368.09
2022-11-25T00:01:16.115Z,100360.94
2022-11-25T00:02:20.853Z,100357.38
2022-11-25T00:03:23.298Z,100364.53
2022-11-25T00:04:25.729Z,100365.34
2022-11-25T00:05:30.899Z,100368.91
2022-11-25T00:06:35.967Z,100365.13
2022-11-25T00:07:39.157Z,100365.13
2022-11-25T00:08:42.768Z,100364.31
2022-11-25T00:09:45.017Z,100363.25
2022-11-25T00:10:47.200Z,100363.25
2022-11-25T00:11:52.377Z,100363.25
2022-11-25T00:12:54.769Z,100366.81
2022-11-25T00:13:57.601Z,100361.31
2022-11-25T00:14:59.881Z,100366.81
2022-11-25T00:16:07.957Z,100356.66
2022-11-25T00:17:10.231Z,100361.31
2022-11-25T00:18:12.434Z,100347.84
2022-11-25T00:19:14.649Z,100355.84
2022-11-25T00:20:23.997Z,100356.66
2022-11-25T00:21:29.491Z,100362.16
2022-11-25T00:22:31.714Z,100359.41
2022-11-25T00:23:34.102Z,100365.75
2022-11-25T00:24:36.663Z,100363.00
2022-11-25T00:25:38.982Z,100367.44
2022-11-25T00:26:41.363Z,100363.00
2022-11-25T00:27:43.540Z,100368.50
2022-11-25T00:28:47.161Z,100367.44
2022-11-25T00:29:49.363Z,100368.25
2022-11-25T00:30:51.634Z,100362.78
2022-11-25T00:31:53.945Z,100358.13
2022-11-25T00:32:56.319Z,100369.09
2022-11-25T00:33:58.903Z,100362.78
2022-11-25T00:35:01.175Z,100364.47
2022-11-25T00:36:05.370Z,100364.47
2022-11-25T00:37:07.527Z,100363.41
2022-11-25T00:38:09.733Z,100363.41
2022-11-25T00:39:14.925Z,100360.66
2022-11-25T00:40:17.287Z,100362.31
2022-11-25T00:41:38.351Z,100368.66
2022-11-25T00:42:59.934Z,100366.72
2022-11-25T00:44:20.884Z,100366.72
2022-11-25T00:45:23.804Z,100363.16
2022-11-25T00:46:26.253Z,100365.66
2022-11-25T00:47:30.808Z,100353.88
2022-11-25T00:48:33.011Z,100363.16
2022-11-25T00:49:35.749Z,100359.38
2022-11-25T00:50:38.076Z,100365.91
2022-11-25T00:51:40.331Z,100362.09
2022-11-25T00:52:42.525Z,100359.56
2022-11-25T00:53:44.928Z,100369.47
2022-11-25T00:54:48.013Z,100362.31
2022-11-25T00:56:08.680Z,100358.75
2022-11-25T00:57:12.184Z,100359.56
2022-11-25T00:58:14.381Z,100362.31
2022-11-25T00:59:19.015Z,100363.16
2022-11-25T01:00:21.365Z,100366.72
2022-11-25T01:01:24.027Z,100357.91
2022-11-25T01:02:26.636Z,100363.16
2022-11-25T01:03:30.145Z,100365.28
2022-11-25T01:04:32.678Z,100363.41
2022-11-25T01:05:36.764Z,100356.47
2022-11-25T01:06:39.515Z,100363.59
2022-11-25T01:07:44.796Z,100369.31
2022-11-25T01:08:47.161Z,100370.16
2022-11-25T01:09:52.183Z,100364.69
2022-11-25T01:11:01.696Z,100363.84
2022-11-25T01:12:05.007Z,100360.28
2022-11-25T01:13:07.226Z,100365.97
2022-11-25T01:14:11.716Z,100365.97
2022-11-25T01:15:14.028Z,100358.81
2022-11-25T01:16:19.452Z,100360.69
2022-11-25T01:17:22.250Z,100362.63
2022-11-25T01:18:24.509Z,100360.94
2022-11-25T01:19:29.175Z,100359.25
2022-11-25T01:20:31.737Z,100367.47
2022-11-25T01:21:35.237Z,100363.09
2022-11-25T01:22:37.416Z,100362.22
2022-11-25T01:23:41.009Z,100372.38
2022-11-25T01:24:43.214Z,100362.47
2022-11-25T01:25:45.551Z,100367.13
2022-11-25T01:26:47.918Z,100365.44
2022-11-25T01:27:50.172Z,100367.34
2022-11-25T01:29:01.549Z,100367.34
2022-11-25T01:30:04.058Z,100367.53
2022-11-25T01:31:20.355Z,100366.72
2022-11-25T01:32:23.390Z,100365.91
2022-11-25T01:33:25.639Z,100367.78
2022-11-25T01:34:28.572Z,100367.78
2022-11-25T01:35:32.722Z,100356.81
2022-11-25T01:36:34.977Z,100362.31
2022-11-25T01:37:38.451Z,100361.47
2022-11-25T01:38:41.271Z,100356.00
2022-11-25T01:39:43.974Z,100353.25
2022-11-25T01:40:46.168Z,100359.78
2022-11-25T01:41:49.440Z,100364.44
2022-11-25T01:42:51.730Z,100358.97
2022-11-25T01:44:20.051Z,100358.97
2022-11-25T01:45:24.529Z,100354.53
2022-11-25T01:46:35.170Z,100356.44
2022-11-25T01:47:37.633Z,100356.44
2022-11-25T01:48:45.830Z,100355.38
2022-11-25T01:50:03.777Z,100351.19
2022-11-25T01:51:12.340Z,100360.25
2022-11-25T01:52:17.517Z,100354.97
2022-11-25T01:53:21.472Z,100364.06
2022-11-25T01:54:29.000Z,100360.47
2022-11-25T01:55:34.740Z,100355.22
2022-11-25T01:56:47.088Z,100357.72
2022-11-25T01:57:58.250Z,100357.72
2022-11-25T01:59:00.750Z,100356.06
2022-11-25T02:00:07.956Z,100364.88
2022-11-25T02:01:21.802Z,100360.47
2022-11-25T02:02:24.559Z,100359.63
2022-11-25T02:03:41.951Z,100362.38
2022-11-25T02:04:45.894Z,100357.13
2022-11-25T02:06:08.580Z,100370.59
2022-11-25T02:07:18.846Z,100360.69
2022-11-25T02:08:23.854Z,100363.44
2022-11-25T02:09:28.008Z,100362.59
2022-11-25T02:10:33.180Z,100358.81
2022-11-25T02:11:42.423Z,100363.44
2022-11-25T02:12:47.575Z,100355.44
2022-11-25T02:13:51.668Z,100362.59
2022-11-25T02:14:56.943Z,100358.19
2022-11-25T02:15:59.232Z,100361.97
2022-11-25T02:17:02.749Z,100361.16
2022-11-25T02:18:05.668Z,100356.50
2022-11-25T02:19:17.287Z,100359.22
2022-11-25T02:20:21.772Z,100357.34
2022-11-25T02:21:31.505Z,100359.22
2022-11-25T02:22:52.189Z,100363.66
2022-11-25T02:24:22.048Z,100361.97
2022-11-25T02:25:27.064Z,100364.72
2022-11-25T02:26:31.649Z,100364.94
2022-11-25T02:27:34.015Z,100361.16
2022-11-25T02:28:37.382Z,100358.84
2022-11-25T02:29:43.910Z,100359.69
2022-11-25T02:30:46.956Z,100358.84
2022-11-25T02:31:51.398Z,100359.94
2022-11-25T02:32:53.754Z,100357.41
2022-11-25T02:33:56.076Z,100356.56
2022-11-25T02:34:58.287Z,100362.03
2022-11-25T02:36:05.073Z,100359.31
2022-11-25T02:37:07.333Z,100360.34
2022-11-25T02:38:16.609Z,100354.88
2022-11-25T02:39:20.212Z,100355.97
2022-11-25T02:40:23.793Z,100354.06
2022-11-25T02:41:33.506Z,100363.34
2022-11-25T02:42:39.097Z,100357.00
2022-11-25T02:43:41.497Z,100352.38
2022-11-25T02:44:43.709Z,100359.72
2022-11-25T02:45:55.513Z,100350.66
2022-11-25T02:46:57.958Z,100357.22
2022-11-25T02:48:00.314Z,100357.22
2022-11-25T02:49:10.839Z,100359.34
2022-11-25T02:50:14.001Z,100362.06
2022-11-25T02:51:19.150Z,100354.91
2022-11-25T02:52:22.128Z,100353.25
2022-11-25T02:53:25.129Z,100357.66
2022-11-25T02:54:27.386Z,100357.66
2022-11-25T02:55:29.654Z,100357.66
2022-11-25T02:56:34.765Z,100352.41
2022-11-25T02:57:37.016Z,100352.41
2022-11-25T02:58:39.805Z,100355.16
2022-11-25T02:59:43.775Z,100352.63
2022-11-25T03:00:47.278Z,100349.91
2022-11-25T03:01:50.345Z,100345.47
2022-11-25T03:02:54.600Z,100351.78
2022-11-25T03:03:57.100Z,100362.75
2022-11-25T03:04:59.264Z,100349.03
2022-11-25T03:06:02.047Z,100357.25
2022-11-25T03:07:04.312Z,100355.63
2022-11-25T03:08:06.936Z,100353.94
2022-11-25T03:09:12.143Z,100357.50
2022-11-25T03:10:16.060Z,100360.22
2022-11-25T03:11:18.559Z,100361.28
2022-11-25T03:12:20.990Z,100364.03
2022-11-25T03:13:29.289Z,100364.03
2022-11-25T03:14:31.578Z,100364.25
2022-11-25T03:15:35.337Z,100361.28
2022-11-25T03:16:37.685Z,100368.69
2022-11-25T03:17:42.297Z,100368.69
2022-11-25T03:18:45.251Z,100365.94
2022-11-25T03:19:47.580Z,100363.19
2022-11-25T03:20:54.481Z,100360.47
2022-11-25T03:21:58.765Z,100367.84
2022-11-25T03:23:02.266Z,100365.13
2022-11-25T03:24:04.765Z,100360.69
2022-11-25T03:25:07.367Z,100359.63
2022-11-25T03:26:10.722Z,100360.69
2022-11-25T03:27:13.160Z,100358.78
2022-11-25T03:28:16.034Z,100371.66
2022-11-25T03:29:18.536Z,100364.25
2022-11-25T03:30:24.817Z,100364.25
2022-11-25T03:31:30.307Z,100356.03
2022-11-25T03:32:32.597Z,100359.63
2022-11-25T03:33:35.321Z,100357.94
2022-11-25T03:34:37.833Z,100360.69
2022-11-25T03:35:40.707Z,100370.59
2022-11-25T03:36:43.220Z,100365.13
2022-11-25T03:37:46.101Z,100370.59
2022-11-25T03:38:50.607Z,100380.69
2022-11-25T03:39:53.807Z,100379.63
2022-11-25T03:40:56.147Z,100378.81
2022-11-25T03:41:59.107Z,100380.47
2022-11-25T03:43:01.842Z,100385.94
2022-11-25T03:44:04.375Z,100382.38
2022-11-25T03:45:08.035Z,100379.63
2022-11-25T03:46:10.327Z,100374.97
2022-11-25T03:47:12.925Z,100372.25
2022-11-25T03:48:15.192Z,100379.41
2022-11-25T03:49:18.577Z,100375.84
2022-11-25T03:50:20.801Z,100380.25
2022-11-25T03:51:23.654Z,100381.09
2022-11-25T03:52:25.933Z,100382.13
2022-11-25T03:53:28.314Z,100385.72
2022-11-25T03:54:30.958Z,100377.28
2022-11-25T03:55:54.387Z,100381.09
2022-11-25T03:56:59.850Z,100379.16
2022-11-25T03:58:03.008Z,100379.16
2022-11-25T03:59:05.295Z,100381.09
2022-11-25T04:00:10.113Z,100378.97
2022-11-25T04:01:27.439Z,100384.44
2022-11-25T04:02:29.752Z,100382.75
2022-11-25T04:03:32.215Z,100378.97
2022-11-25T04:04:35.030Z,100373.50
2022-11-25T04:05:37.627Z,100388.00
2022-11-25T04:06:42.596Z,100379.81
2022-11-25T04:07:44.943Z,100383.38
2022-11-25T04:08:47.439Z,100380.63
2022-11-25T04:09:49.911Z,100385.03
2022-11-25T04:10:55.199Z,100382.31
2022-11-25T04:12:18.786Z,100384.81
2022-11-25T04:13:30.895Z,100390.28
2022-11-25T04:14:33.442Z,100384.81
2022-11-25T04:15:38.651Z,100389.25
2022-11-25T04:16:42.492Z,100387.34
2022-11-25T04:17:44.790Z,100390.91
2022-11-25T04:18:47.192Z,100390.09
2022-11-25T04:19:49.497Z,100389.00
2022-11-25T04:20:52.129Z,100388.19
2022-11-25T04:21:54.940Z,100387.13
2022-11-25T04:22:59.157Z,100391.56
2022-11-25T04:24:01.575Z,100398.72
2022-11-25T04:25:04.443Z,100390.50
2022-11-25T04:26:06.751Z,100387.75
2022-11-25T04:27:12.986Z,100390.50
2022-11-25T04:28:16.124Z,100392.19
2022-11-25T04:29:18.474Z,100387.56
2022-11-25T04:30:20.797Z,100384.81
2022-11-25T04:31:23.639Z,100395.53
2022-11-25T04:32:26.019Z,100391.94
2022-11-25T04:33:28.707Z,100382.91
2022-11-25T04:34:31.120Z,100398.28
2022-11-25T04:35:34.312Z,100395.53
2022-11-25T04:36:37.155Z,100391.94
2022-11-25T04:37:39.485Z,100390.06
2022-11-25T04:38:41.836Z,100399.09
2022-11-25T04:39:44.417Z,100396.38
2022-11-25T04:40:52.889Z,100394.44
2022-11-25T04:42:16.643Z,100394.25
2022-11-25T04:43:19.160Z,100394.44
2022-11-25T04:44:48.714Z,100397.19
2022-11-25T04:46:13.978Z,100395.06
2022-11-25T04:47:18.860Z,100395.91
2022-11-25T04:48:21.242Z,100395.06
2022-11-25T04:49:23.561Z,100390.06
2022-11-25T04:50:25.876Z,100397.00
2022-11-25T04:51:34.960Z,100391.72
2022-11-25T04:52:39.888Z,100392.56
2022-11-25T04:53:44.170Z,100398.66
2022-11-25T04:54:47.555Z,100400.78
2022-11-25T04:55:49.881Z,100398.66
2022-11-25T04:56:52.217Z,100398.66
2022-11-25T04:57:56.363Z,100397.81
2022-11-25T04:59:28.116Z,100395.31
2022-11-25T05:00:30.434Z,100401.38
2022-11-25T05:01:33.473Z,100397.00
2022-11-25T05:02:49.769Z,100395.31
2022-11-25T05:03:57.627Z,100389.22
2022-11-25T05:05:01.797Z,100389.22
2022-11-25T05:06:09.352Z,100395.53
2022-11-25T05:07:14.682Z,100388.38
2022-11-25T05:08:19.245Z,100387.75
2022-11-25T05:09:22.811Z,100383.97
2022-11-25T05:10:34.309Z,100387.97
2022-11-25T05:11:36.776Z,100396.19
2022-11-25T05:12:39.536Z,100389.00
2022-11-25T05:13:45.534Z,100389.00
2022-11-25T05:14:48.464Z,100382.94
2022-11-25T05:15:51.707Z,100387.56
2022-11-25T05:16:56.311Z,100383.16
2022-11-25T05:17:59.064Z,100383.16
2022-11-25T05:19:15.198Z,100379.81
2022-11-25T05:20:17.659Z,100380.03
2022-11-25T05:21:22.472Z,100385.50
2022-11-25T05:22:28.061Z,100385.72
2022-11-25T05:23:31.496Z,100384.06
2022-11-25T05:24:34.727Z,100382.38
2022-11-25T05:25:37.916Z,100384.47
2022-11-25T05:26:58.542Z,100389.13
2022-11-25T05:28:03.483Z,100380.91
2022-11-25T05:29:05.911Z,100383.03
2022-11-25T05:30:09.874Z,100377.56
2022-11-25T05:31:13.204Z,100385.16
2022-11-25T05:32:16.058Z,100379.06
2022-11-25T05:33:18.696Z,100374.69
2022-11-25T05:34:21.140Z,100378.47
2022-11-25T05:35:24.010Z,100375.97
2022-11-25T05:36:26.318Z,100381.63
2022-11-25T05:37:28.633Z,100386.50
2022-11-25T05:38:37.524Z,100388.38
2022-11-25T05:39:39.960Z,100384.00
2022-11-25T05:41:06.361Z,100382.53
2022-11-25T05:42:08.694Z,100386.34
2022-11-25T05:43:12.039Z,100394.78
2022-11-25T05:44:21.203Z,100403.19
2022-11-25T05:45:27.053Z,100399.00
2022-11-25T05:46:29.303Z,100398.16
2022-11-25T05:47:32.101Z,100401.34
2022-11-25T05:48:35.447Z,100397.75
2022-11-25T05:49:37.950Z,100397.16
2022-11-25T05:50:41.278Z,100402.88
2022-11-25T05:51:51.276Z,100403.91
2022-11-25T05:52:56.016Z,100400.56
2022-11-25T05:53:58.917Z,100401.00
2022-11-25T05:55:05.114Z,100404.78
2022-11-25T05:56:09.872Z,100404.16
2022-11-25T05:57:28.781Z,100396.63
2022-11-25T05:58:39.879Z,100402.09
2022-11-25T05:59:42.195Z,100406.72
2022-11-25T06:00:55.210Z,100408.00
2022-11-25T06:01:58.537Z,100400.00
2022-11-25T06:03:02.096Z,100405.72
2022-11-25T06:04:05.770Z,100409.72
2022-11-25T06:05:08.548Z,100408.91
2022-11-25T06:06:11.419Z,100412.91
2022-11-25T06:07:14.289Z,100414.78
2022-11-25T06:08:17.077Z,100416.06
2022-11-25T06:09:19.339Z,100412.72
2022-11-25T06:10:21.588Z,100411.03
2022-11-25T06:11:25.805Z,100419.47
2022-11-25T06:12:28.158Z,100416.97
2022-11-25T06:13:30.359Z,100417.38
2022-11-25T06:14:32.658Z,100422.25
2022-11-25T06:15:40.693Z,100414.88
2022-11-25T06:16:43.279Z,100429.00
2022-11-25T06:17:57.393Z,100421.00
2022-11-25T06:19:07.055Z,100424.81
2022-11-25T06:20:10.003Z,100418.69
2022-11-25T06:21:14.790Z,100431.75
2022-11-25T06:22:17.899Z,100429.22
2022-11-25T06:23:20.122Z,100433.03
2022-11-25T06:24:23.843Z,100428.63
2022-11-25T06:25:32.111Z,100434.31
2022-11-25T06:26:34.501Z,100431.75
2022-11-25T06:27:57.261Z,100430.31
2022-11-25T06:28:59.074Z,100433.25
2022-11-25T06:30:01.824Z,100428.84
2022-11-25T06:31:06.186Z,100429.06
2022-11-25T06:32:13.140Z,100428.47
2022-11-25T06:33:23.450Z,100429.50
2022-11-25T06:34:26.388Z,100427.81
2022-11-25T06:35:30.975Z,100429.94
2022-11-25T06:36:36.558Z,100433.50
2022-11-25T06:37:39.416Z,100430.13
2022-11-25T06:38:41.650Z,100432.28
2022-11-25T06:39:43.856Z,100433.31
2022-11-25T06:40:46.056Z,100437.97
2022-11-25T06:41:48.322Z,100431.84
2022-11-25T06:42:50.718Z,100435.63
2022-11-25T06:43:53.074Z,100443.22
2022-11-25T06:44:55.276Z,100443.41
2022-11-25T06:46:09.382Z,100442.59
2022-11-25T06:47:11.622Z,100444.69
2022-11-25T06:48:13.866Z,100445.75
2022-11-25T06:49:16.154Z,100444.31
2022-11-25T06:50:18.504Z,100444.31
2022-11-25T06:51:21.056Z,100439.88
2022-11-25T06:52:23.308Z,100435.47
2022-11-25T06:53:25.879Z,100448.28
2022-11-25T06:54:28.101Z,100445.56
2022-11-25T06:55:30.426Z,100442.19
2022-11-25T06:56:32.963Z,100442.41
2022-11-25T06:57:35.236Z,100445.38
2022-11-25T06:58:38.494Z,100450.84
2022-11-25T06:59:40.685Z,100449.16
2022-11-25T07:00:43.508Z,100451.88
2022-11-25T07:01:45.870Z,100453.16
2022-11-25T07:02:49.056Z,100452.50
2022-11-25T07:03:53.770Z,100451.69
2022-11-25T07:04:56.080Z,100459.22
2022-11-25T07:05:59.488Z,100458.41
2022-11-25T07:07:01.714Z,100450.66
2022-11-25T07:08:04.062Z,100459.69
2022-11-25T07:09:07.164Z,100453.38
2022-11-25T07:10:10.330Z,100457.97
2022-11-25T07:11:24.190Z,100454.44
2022-11-25T07:12:26.417Z,100458.44
2022-11-25T07:13:30.500Z,100459.47
2022-11-25T07:14:32.793Z,100463.25
2022-11-25T07:15:36.319Z,100474.19
2022-11-25T07:16:44.156Z,100468.72
2022-11-25T07:17:46.366Z,100471.88
2022-11-25T07:18:48.605Z,100475.44
2022-11-25T07:19:50.881Z,100473.16
2022-11-25T07:20:53.079Z,100476.69
2022-11-25T07:21:55.284Z,100474.81
2022-11-25T07:22:57.466Z,100483.25
2022-11-25T07:24:01.875Z,100476.69
2022-11-25T07:25:04.219Z,100476.91
2022-11-25T07:26:12.225Z,100480.50
2022-11-25T07:27:14.459Z,100480.69
2022-11-25T07:28:16.691Z,100480.69
2022-11-25T07:32:10.544Z,100490.78
2022-11-25T07:33:13.230Z,100487.03
2022-11-25T07:34:21.537Z,100488.88
2022-11-25T07:35:23.961Z,100487.25
2022-11-25T07:36:27.325Z,100488.72
2022-11-25T07:37:29.585Z,100486.16
2022-11-25T07:38:32.685Z,100492.47
2022-11-25T07:39:35.295Z,100487.25
2022-11-25T07:40:37.704Z,100485.13
2022-11-25T07:41:41.529Z,100480.69
2022-11-25T07:42:43.726Z,100487.84
2022-11-25T07:43:50.895Z,100484.28
2022-11-25T07:44:56.507Z,100483.25
2022-11-25T07:46:26.509Z,100487.03
2022-11-25T07:47:29.170Z,100484.91
2022-11-25T07:48:32.297Z,100489.31
2022-11-25T07:49:34.840Z,100494.78
2022-11-25T07:50:38.547Z,100488.28
2022-11-25T07:51:43.475Z,100498.78
2022-11-25T07:52:45.734Z,100500.22
2022-11-25T07:53:49.576Z,100494.56
2022-11-25T07:54:53.525Z,100487.00
2022-11-25T07:55:55.760Z,100490.38
2022-11-25T07:56:58.005Z,100497.31
2022-11-25T07:58:00.181Z,100495.19
2022-11-25T07:59:02.557Z,100492.03
2022-11-25T08:00:06.303Z,100494.34
2022-11-25T08:01:15.321Z,100493.72
2022-11-25T08:02:17.617Z,100492.22
2022-11-25T08:03:19.968Z,100485.28
2022-11-25T08:04:23.332Z,100494.50
2022-11-25T08:05:25.534Z,100495.75
2022-11-25T08:06:29.458Z,100501.19
2022-11-25T08:07:36.348Z,100497.19
2022-11-25T08:08:40.338Z,100492.78
2022-11-25T08:09:42.529Z,100492.34
2022-11-25T08:10:54.833Z,100494.00
2022-11-25T08:11:57.085Z,100490.41
2022-11-25T08:12:59.329Z,100488.09
2022-11-25T08:14:01.865Z,100488.88
2022-11-25T08:15:04.258Z,100492.03
2022-11-25T08:16:08.639Z,100492.22
2022-11-25T08:17:11.303Z,100482.50
2022-11-25T08:18:16.753Z,100483.53
2022-11-25T08:19:19.469Z,100485.63
2022-11-25T08:20:21.718Z,100484.13
2022-11-25T08:21:24.297Z,100483.47
2022-11-25T08:22:26.502Z,100492.69
2022-11-25T08:23:28.836Z,100493.72
2022-11-25T08:24:31.104Z,100484.03
2022-11-25T08:25:33.452Z,100491.31
2022-11-25T08:26:37.754Z,100494.03
2022-11-25T08:27:41.500Z,100496.75
2022-11-25T08:28:44.152Z,100495.84
2022-11-25T08:29:46.499Z,100493.31
2022-11-25T08:30:48.829Z,100495.16
2022-11-25T08:31:51.299Z,100499.75
2022-11-25T08:33:03.561Z,100497.19
2022-11-25T08:34:07.678Z,100505.94
2022-11-25T08:35:10.603Z,100501.72
2022-11-25T08:36:13.680Z,100506.28
2022-11-25T08:37:15.941Z,100502.06
2022-11-25T08:38:18.128Z,100500.31
2022-11-25T08:39:51.887Z,100501.28
2022-11-25T08:40:44.357Z,100494.09
2022-11-25T08:41:46.610Z,100501.63
2022-11-25T08:42:48.861Z,100500.09
2022-11-25T08:43:51.303Z,100499.44
2022-11-25T08:44:55.924Z,100496.84
2022-11-25T08:45:58.261Z,100500.81
2022-11-25T08:47:00.975Z,100497.41
2022-11-25T08:48:03.843Z,100495.88
2022-11-25T08:49:09.773Z,100496.03
2022-11-25T08:50:15.065Z,100500.56
2022-11-25T08:51:21.037Z,100495.25
2022-11-25T08:52:23.977Z,100504.47
2022-11-25T08:53:26.201Z,100494.94
2022-11-25T08:54:28.378Z,100498.06
2022-11-25T08:55:30.674Z,100488.91
2022-11-25T08:56:32.946Z,100500.03
2022-11-25T08:57:35.527Z,100491.13
2022-11-25T08:58:38.072Z,100493.78
2022-11-25T08:59:41.024Z,100493.91
2022-11-25T09:00:44.923Z,100499.56
2022-11-25T09:01:47.116Z,100493.16
2022-11-25T09:02:50.006Z,100497.34
2022-11-25T09:03:55.900Z,100488.38
2022-11-25T09:04:58.264Z,100492.56
2022-11-25T09:06:01.286Z,100497.38
2022-11-25T09:07:05.084Z,100492.47
2022-11-25T09:08:09.558Z,100496.66
2022-11-25T09:09:11.842Z,100496.66
2022-11-25T09:10:16.679Z,100496.22
2022-11-25T09:11:18.976Z,100498.09
2022-11-25T09:12:23.653Z,100495.09
2022-11-25T09:13:26.504Z,100500.59
2022-11-25T09:14:28.826Z,100498.72
2022-11-25T09:15:31.819Z,100502.91
2022-11-25T09:16:34.125Z,100494.66
2022-11-25T09:17:37.517Z,100494.66
2022-11-25T09:18:40.081Z,100495.50
2022-11-25T09:19:42.513Z,100491.47
2022-11-25T09:20:44.865Z,100493.97
2022-11-25T09:21:47.045Z,100494.59
2022-11-25T09:22:49.340Z,100495.19
2022-11-25T09:23:54.085Z,100500.47
2022-11-25T09:24:56.260Z,100495.56
2022-11-25T09:25:59.258Z,100491.50
2022-11-25T09:27:01.866Z,100492.94
2022-11-25T09:28:04.842Z,100491.63
2022-11-25T09:29:08.090Z,100484.81
2022-11-25T09:30:11.009Z,100489.25
2022-11-25T09:31:13.257Z,100492.38
2022-11-25T09:32:15.748Z,100498.44
2022-11-25T09:33:19.173Z,100497.16
2022-11-25T09:34:21.366Z,100493.94
2022-11-25T09:35:25.719Z,100503.84
2022-11-25T09:36:27.915Z,100493.22
2022-11-25T09:37:32.383Z,100487.47
2022-11-25T09:38:37.711Z,100493.59
2022-11-25T09:39:43.848Z,100496.94
2022-11-25T09:41:01.709Z,100487.34
2022-11-25T09:42:53.181Z,100494.91
2022-11-25T09:44:52.515Z,100502.47
2022-11-25T09:46:46.338Z,100494.53
2022-11-25T09:48:22.098Z,100490.47
2022-11-25T09:49:27.229Z,100501.47
2022-11-25T09:51:00.147Z,100493.00
2022-11-25T09:52:31.582Z,100494.44
2022-11-25T09:53:43.000Z,100499.72
2022-11-25T09:54:52.763Z,100503.03
2022-11-25T09:56:01.773Z,100496.84
2022-11-25T09:57:24.149Z,100502.91
2022-11-25T09:58:31.336Z,100495.03
2022-11-25T09:59:48.542Z,100500.66
2022-11-25T10:00:51.697Z,100502.09
2022-11-25T10:02:12.353Z,100501.59
2022-11-25T10:03:17.347Z,100497.53
2022-11-25T10:04:37.982Z,100502.31
2022-11-25T10:05:47.458Z,100503.75
2022-11-25T10:06:55.819Z,100490.81
2022-11-25T10:08:08.478Z,100494.78
2022-11-25T10:09:22.615Z,100492.38
2022-11-25T10:10:31.152Z,100494.03
2022-11-25T10:11:56.358Z,100492.72
2022-11-25T10:12:59.830Z,100494.41
2022-11-25T10:14:10.911Z,100489.47
2022-11-25T10:15:21.241Z,100493.09
2022-11-25T10:16:38.597Z,100485.66
2022-11-25T10:17:52.154Z,100488.41
2022-11-25T10:19:01.533Z,100493.66
2022-11-25T10:20:28.237Z,100489.59
2022-11-25T10:21:30.502Z,100489.84
2022-11-25T10:22:36.462Z,100492.13
2022-11-25T10:23:40.603Z,100485.50
2022-11-25T10:24:43.239Z,100495.44
2022-11-25T10:25:48.904Z,100489.94
2022-11-25T10:27:01.423Z,100487.81
2022-11-25T10:28:25.414Z,100497.50
2022-11-25T10:29:30.759Z,100495.31
2022-11-25T10:30:44.410Z,100495.91
2022-11-25T10:31:46.658Z,100489.59
2022-11-25T10:32:56.637Z,100502.03
2022-11-25T10:34:18.500Z,100488.28
2022-11-25T10:35:40.775Z,100489.09
2022-11-25T10:36:44.362Z,100494.59
2022-11-25T10:37:48.802Z,100485.84
2022-11-25T10:39:24.649Z,100483.94
2022-11-25T10:40:27.235Z,100487.28
2022-11-25T10:41:48.858Z,100483.44
2022-11-25T10:42:51.185Z,100482.38
2022-11-25T10:43:53.572Z,100479.38
2022-11-25T10:44:56.796Z,100472.78
2022-11-25T10:46:07.687Z,100479.97
2022-11-25T10:47:31.743Z,100479.47
2022-11-25T10:48:41.346Z,100485.81
2022-11-25T10:50:07.996Z,100480.28
2022-11-25T10:51:27.778Z,100479.81
2022-11-25T10:52:34.876Z,100478.25
2022-11-25T10:53:38.157Z,100476.31
2022-11-25T10:54:41.222Z,100482.44
2022-11-25T10:55:57.855Z,100475.63
2022-11-25T10:57:03.191Z,100475.38
2022-11-25T10:58:30.311Z,100476.81
2022-11-25T10:59:35.437Z,100477.41
2022-11-25T11:00:39.029Z,100479.06
2022-11-25T11:01:41.350Z,100472.47
2022-11-25T11:02:48.415Z,100473.06
2022-11-25T11:04:05.789Z,100473.63
2022-11-25T11:05:07.967Z,100471.50
2022-11-25T11:06:31.173Z,100473.75
2022-11-25T11:07:36.637Z,100475.16
2022-11-25T11:08:43.636Z,100470.50
2022-11-25T11:09:46.463Z,100471.94
2022-11-25T11:11:11.414Z,100467.59
2022-11-25T11:12:24.230Z,100464.59
2022-11-25T11:13:33.329Z,100466.84
2022-11-25T11:14:36.013Z,100471.28
2022-11-25T11:15:41.584Z,100463.59
2022-11-25T11:16:53.610Z,100467.78
2022-11-25T11:17:57.682Z,100459.25
2022-11-25T11:19:00.524Z,100470.03
2022-11-25T11:20:08.451Z,100456.84
2022-11-25T11:21:29.552Z,100461.25
2022-11-25T11:22:33.017Z,100464.00
2022-11-25T11:23:54.945Z,100459.91
2022-11-25T11:25:27.662Z,100457.16
2022-11-25T11:26:39.679Z,100450.56
2022-11-25T11:27:41.883Z,100447.81
2022-11-25T11:28:44.651Z,100448.41
2022-11-25T11:29:46.872Z,100455.59
2022-11-25T11:31:18.140Z,100451.50
2022-11-25T11:32:25.300Z,100454.28
2022-11-25T11:33:42.559Z,100450.66
2022-11-25T11:35:14.086Z,100446.00
2022-11-25T11:36:31.517Z,100449.59
2022-11-25T11:37:53.566Z,100440.22
2022-11-25T11:39:21.986Z,100444.06
2022-11-25T11:40:38.837Z,100444.06
2022-11-25T11:42:29.922Z,100448.75
2022-11-25T11:43:50.028Z,100451.50
2022-11-25T11:45:24.712Z,100456.16
2022-11-25T11:46:41.455Z,100453.16
2022-11-25T11:48:05.299Z,100450.19
2022-11-25T11:49:53.090Z,100455.91
2022-11-25T11:51:16.151Z,100452.34
2022-11-25T11:52:53.194Z,100443.25
2022-11-25T11:54:34.972Z,100450.66
2022-11-25T11:56:33.768Z,100444.56
2022-11-25T11:57:59.947Z,100450.91
2022-11-25T11:59:33.234Z,100442.91
2022-11-25T12:00:48.356Z,100449.50
2022-11-25T12:02:45.071Z,100445.91
2022-11-25T12:04:02.992Z,100447.81
2022-11-25T12:05:10.854Z,100445.06
2022-11-25T12:06:15.424Z,100448.88
2022-11-25T12:07:42.080Z,100443.38
2022-11-25T12:08:59.266Z,100441.47
2022-11-25T12:10:18.007Z,100443.38
2022-11-25T12:11:27.272Z,100437.03
2022-11-25T12:12:45.258Z,100440.63
2022-11-25T12:14:00.707Z,100436.22
2022-11-25T12:15:17.355Z,100436.22
2022-11-25T12:16:23.921Z,100437.28
2022-11-25T12:17:39.459Z,100442.56
2022-11-25T12:19:02.759Z,100436.44
2022-11-25T12:20:17.687Z,100442.81
2022-11-25T12:21:31.057Z,100436.22
2022-11-25T12:22:46.936Z,100438.97
2022-11-25T12:24:05.022Z,100438.38
2022-11-25T12:25:19.670Z,100425.41
2022-11-25T12:26:30.585Z,100430.09
2022-11-25T12:27:46.383Z,100431.78
2022-11-25T12:28:57.989Z,100428.16
2022-11-25T12:30:03.341Z,100421.84
2022-11-25T12:31:45.596Z,100432.88
2022-11-25T12:33:09.537Z,100419.34
2022-11-25T12:34:31.307Z,100427.34
2022-11-25T12:36:12.271Z,100428.44
2022-11-25T12:37:27.201Z,100424.59
2022-11-25T12:38:50.968Z,100427.34
2022-11-25T12:40:33.081Z,100430.94
2022-11-25T12:41:43.952Z,100418.00
2022-11-25T12:42:48.796Z,100421.00
2022-11-25T12:44:05.357Z,100416.31
2022-11-25T12:45:17.350Z,100423.50
2022-11-25T12:46:29.159Z,100421.59
2022-11-25T12:47:31.771Z,100423.25
2022-11-25T12:48:41.407Z,100419.69
2022-11-25T12:49:47.715Z,100424.09